sensor_id;sensor_type;location;lat;lon;timestamp;P1;durP1;ratioP1;P2;durP2;ratioP2
58310;SDS011;45001;52.218;5.154;2022-09-20T00:01:01;2.95;;;1.20;;
58310;SDS011;45001;52.218;5.154;2022-09-20T00:03:28;2.75;;;0.77;;
58310;SDS011;45001;52.218;5.154;2022-09-20T00:05:53;2.17;;;0.90;;
58310;SDS011;45001;52.218;5.154;2022-09-20T00:08:19;1.55;;;0.82;;
58310;SDS011;45001;52.218;5.154;2022-09-20T00:10:44;2.38;;;1.00;;
58310;SDS011;45001;52.218;5.154;2022-09-20T00:13:11;2.90;;;0.75;;
58310;SDS011;45001;52.218;5.154;2022-09-20T00:15:41;2.22;;;0.80;;
58310;SDS011;45001;52.218;5.154;2022-09-20T00:18:10;2.25;;;0.80;;
58310;SDS011;45001;52.218;5.154;2022-09-20T00:20:43;1.35;;;0.55;;
58310;SDS011;45001;52.218;5.154;2022-09-20T00:23:09;2.25;;;0.80;;
58310;SDS011;45001;52.218;5.154;2022-09-20T00:25:34;1.90;;;0.65;;
58310;SDS011;45001;52.218;5.154;2022-09-20T00:27:59;3.05;;;0.90;;
58310;SDS011;45001;52.218;5.154;2022-09-20T00:30:25;1.40;;;0.80;;
58310;SDS011;45001;52.218;5.154;2022-09-20T00:32:50;1.98;;;0.65;;
58310;SDS011;45001;52.218;5.154;2022-09-20T00:35:16;2.88;;;0.80;;
58310;SDS011;45001;52.218;5.154;2022-09-20T00:37:42;2.90;;;1.00;;
58310;SDS011;45001;52.218;5.154;2022-09-20T00:40:09;2.50;;;0.73;;
58310;SDS011;45001;52.218;5.154;2022-09-20T00:42:37;1.75;;;0.75;;
58310;SDS011;45001;52.218;5.154;2022-09-20T00:52:31;2.13;;;0.70;;
58310;SDS011;45001;52.218;5.154;2022-09-20T00:54:58;3.28;;;0.77;;
58310;SDS011;45001;52.218;5.154;2022-09-20T00:57:24;1.52;;;0.73;;
58310;SDS011;45001;52.218;5.154;2022-09-20T00:59:50;1.63;;;0.70;;
58310;SDS011;45001;52.218;5.154;2022-09-20T01:02:19;1.85;;;0.65;;
58310;SDS011;45001;52.218;5.154;2022-09-20T01:04:50;2.55;;;1.15;;
58310;SDS011;45001;52.218;5.154;2022-09-20T01:07:16;2.33;;;0.80;;
58310;SDS011;45001;52.218;5.154;2022-09-20T01:09:46;2.58;;;0.65;;
58310;SDS011;45001;52.218;5.154;2022-09-20T01:12:12;2.00;;;0.70;;
58310;SDS011;45001;52.218;5.154;2022-09-20T01:14:41;2.38;;;0.75;;
58310;SDS011;45001;52.218;5.154;2022-09-20T01:17:09;1.10;;;0.60;;
58310;SDS011;45001;52.218;5.154;2022-09-20T01:19:47;2.55;;;0.75;;
58310;SDS011;45001;52.218;5.154;2022-09-20T01:30:11;1.75;;;0.70;;
58310;SDS011;45001;52.218;5.154;2022-09-20T01:33:05;3.25;;;0.65;;
58310;SDS011;45001;52.218;5.154;2022-09-20T01:35:28;2.10;;;0.70;;
58310;SDS011;45001;52.218;5.154;2022-09-20T01:38:09;1.90;;;0.63;;
58310;SDS011;45001;52.218;5.154;2022-09-20T01:46:34;3.08;;;0.90;;
58310;SDS011;45001;52.218;5.154;2022-09-20T02:00:16;2.65;;;0.70;;
58310;SDS011;45001;52.218;5.154;2022-09-20T02:03:06;1.38;;;0.60;;
58310;SDS011;45001;52.218;5.154;2022-09-20T02:11:52;1.10;;;0.60;;
58310;SDS011;45001;52.218;5.154;2022-09-20T02:17:40;3.90;;;0.70;;
58310;SDS011;45001;52.218;5.154;2022-09-20T02:20:22;1.50;;;0.70;;
58310;SDS011;45001;52.218;5.154;2022-09-20T02:34:21;1.33;;;0.57;;
58310;SDS011;45001;52.218;5.154;2022-09-20T02:37:20;1.80;;;0.70;;
58310;SDS011;45001;52.218;5.154;2022-09-20T02:48:23;2.38;;;0.60;;
58310;SDS011;45001;52.218;5.154;2022-09-20T02:51:02;2.45;;;0.70;;
58310;SDS011;45001;52.218;5.154;2022-09-20T03:04:53;1.85;;;0.60;;
58310;SDS011;45001;52.218;5.154;2022-09-20T03:13:12;1.23;;;0.57;;
58310;SDS011;45001;52.218;5.154;2022-09-20T03:15:47;1.35;;;0.52;;
58310;SDS011;45001;52.218;5.154;2022-09-20T03:18:32;0.80;;;0.50;;
58310;SDS011;45001;52.218;5.154;2022-09-20T03:23:54;2.33;;;0.77;;
58310;SDS011;45001;52.218;5.154;2022-09-20T03:29:24;1.67;;;0.60;;
58310;SDS011;45001;52.218;5.154;2022-09-20T03:37:54;1.67;;;0.75;;
58310;SDS011;45001;52.218;5.154;2022-09-20T03:42:58;1.58;;;0.60;;
58310;SDS011;45001;52.218;5.154;2022-09-20T03:45:42;1.05;;;0.52;;
58310;SDS011;45001;52.218;5.154;2022-09-20T03:51:12;1.75;;;0.60;;
58310;SDS011;45001;52.218;5.154;2022-09-20T03:57:05;2.42;;;0.70;;
58310;SDS011;45001;52.218;5.154;2022-09-20T03:59:48;1.17;;;0.40;;
58310;SDS011;45001;52.218;5.154;2022-09-20T04:02:35;2.22;;;0.85;;
58310;SDS011;45001;52.218;5.154;2022-09-20T04:05:35;1.38;;;0.60;;
58310;SDS011;45001;52.218;5.154;2022-09-20T04:08:09;0.77;;;0.47;;
58310;SDS011;45001;52.218;5.154;2022-09-20T04:11:00;1.10;;;0.50;;
58310;SDS011;45001;52.218;5.154;2022-09-20T04:13:37;2.33;;;0.60;;
58310;SDS011;45001;52.218;5.154;2022-09-20T04:21:56;1.17;;;0.57;;
58310;SDS011;45001;52.218;5.154;2022-09-20T04:27:12;1.85;;;0.60;;
58310;SDS011;45001;52.218;5.154;2022-09-20T04:30:07;1.30;;;0.50;;
58310;SDS011;45001;52.218;5.154;2022-09-20T04:32:47;1.45;;;0.63;;
58310;SDS011;45001;52.218;5.154;2022-09-20T04:35:17;1.90;;;0.60;;
58310;SDS011;45001;52.218;5.154;2022-09-20T04:38:09;1.77;;;0.73;;
58310;SDS011;45001;52.218;5.154;2022-09-20T04:43:28;1.00;;;0.63;;
58310;SDS011;45001;52.218;5.154;2022-09-20T04:46:21;0.85;;;0.30;;
58310;SDS011;45001;52.218;5.154;2022-09-20T05:00:17;1.70;;;0.50;;
58310;SDS011;45001;52.218;5.154;2022-09-20T05:05:55;1.85;;;0.63;;
58310;SDS011;45001;52.218;5.154;2022-09-20T05:14:14;0.50;;;0.40;;
58310;SDS011;45001;52.218;5.154;2022-09-20T05:17:01;1.02;;;0.50;;
58310;SDS011;45001;52.218;5.154;2022-09-20T05:19:50;2.83;;;0.70;;
58310;SDS011;45001;52.218;5.154;2022-09-20T05:37:00;1.52;;;0.57;;
58310;SDS011;45001;52.218;5.154;2022-09-20T05:39:41;1.17;;;0.80;;
58310;SDS011;45001;52.218;5.154;2022-09-20T05:42:22;1.60;;;0.50;;
58310;SDS011;45001;52.218;5.154;2022-09-20T06:04:58;0.90;;;0.50;;
58310;SDS011;45001;52.218;5.154;2022-09-20T06:07:38;1.65;;;0.52;;
58310;SDS011;45001;52.218;5.154;2022-09-20T06:13:28;1.50;;;0.50;;
58310;SDS011;45001;52.218;5.154;2022-09-20T06:16:02;1.98;;;0.50;;
58310;SDS011;45001;52.218;5.154;2022-09-20T06:23:56;2.00;;;0.60;;
58310;SDS011;45001;52.218;5.154;2022-09-20T06:26:26;1.27;;;0.70;;
58310;SDS011;45001;52.218;5.154;2022-09-20T06:29:04;1.33;;;0.68;;
58310;SDS011;45001;52.218;5.154;2022-09-20T06:31:35;1.80;;;0.73;;
58310;SDS011;45001;52.218;5.154;2022-09-20T06:34:04;1.20;;;0.60;;
58310;SDS011;45001;52.218;5.154;2022-09-20T06:36:35;1.80;;;0.73;;
58310;SDS011;45001;52.218;5.154;2022-09-20T06:39:25;2.20;;;0.73;;
58310;SDS011;45001;52.218;5.154;2022-09-20T06:42:26;2.08;;;0.70;;
58310;SDS011;45001;52.218;5.154;2022-09-20T06:44:53;2.15;;;0.77;;
58310;SDS011;45001;52.218;5.154;2022-09-20T06:47:19;2.83;;;0.73;;
58310;SDS011;45001;52.218;5.154;2022-09-20T06:49:47;1.70;;;0.50;;
58310;SDS011;45001;52.218;5.154;2022-09-20T06:52:14;2.50;;;0.80;;
58310;SDS011;45001;52.218;5.154;2022-09-20T06:54:48;2.60;;;1.05;;
58310;SDS011;45001;52.218;5.154;2022-09-20T06:57:18;1.95;;;0.65;;
58310;SDS011;45001;52.218;5.154;2022-09-20T06:59:55;1.38;;;0.73;;
58310;SDS011;45001;52.218;5.154;2022-09-20T07:02:20;1.85;;;0.88;;
58310;SDS011;45001;52.218;5.154;2022-09-20T07:04:46;1.73;;;0.63;;
58310;SDS011;45001;52.218;5.154;2022-09-20T07:07:11;2.22;;;0.68;;
58310;SDS011;45001;52.218;5.154;2022-09-20T07:09:40;2.55;;;0.70;;
58310;SDS011;45001;52.218;5.154;2022-09-20T07:12:05;2.28;;;0.88;;
58310;SDS011;45001;52.218;5.154;2022-09-20T07:14:36;2.30;;;0.70;;
58310;SDS011;45001;52.218;5.154;2022-09-20T07:17:01;2.50;;;0.80;;
58310;SDS011;45001;52.218;5.154;2022-09-20T07:19:27;1.90;;;0.73;;
58310;SDS011;45001;52.218;5.154;2022-09-20T07:21:52;1.58;;;0.63;;
58310;SDS011;45001;52.218;5.154;2022-09-20T07:24:18;1.23;;;0.70;;
58310;SDS011;45001;52.218;5.154;2022-09-20T07:26:53;9.85;;;1.33;;
58310;SDS011;45001;52.218;5.154;2022-09-20T07:29:20;3.13;;;0.80;;
58310;SDS011;45001;52.218;5.154;2022-09-20T07:31:46;1.40;;;0.60;;
58310;SDS011;45001;52.218;5.154;2022-09-20T07:34:14;3.53;;;0.95;;
58310;SDS011;45001;52.218;5.154;2022-09-20T07:36:43;1.70;;;1.15;;
58310;SDS011;45001;52.218;5.154;2022-09-20T07:39:09;2.50;;;0.60;;
58310;SDS011;45001;52.218;5.154;2022-09-20T07:41:34;1.65;;;0.80;;
58310;SDS011;45001;52.218;5.154;2022-09-20T07:43:59;3.53;;;0.90;;
58310;SDS011;45001;52.218;5.154;2022-09-20T07:46:46;4.00;;;0.63;;
58310;SDS011;45001;52.218;5.154;2022-09-20T07:49:12;1.88;;;0.70;;
58310;SDS011;45001;52.218;5.154;2022-09-20T07:51:37;2.20;;;0.70;;
58310;SDS011;45001;52.218;5.154;2022-09-20T07:54:03;1.48;;;0.60;;
58310;SDS011;45001;52.218;5.154;2022-09-20T07:56:28;2.33;;;0.60;;
58310;SDS011;45001;52.218;5.154;2022-09-20T07:58:53;2.92;;;0.80;;
58310;SDS011;45001;52.218;5.154;2022-09-20T08:01:18;2.35;;;1.35;;
58310;SDS011;45001;52.218;5.154;2022-09-20T08:03:46;2.13;;;0.70;;
58310;SDS011;45001;52.218;5.154;2022-09-20T08:06:11;2.38;;;0.98;;
58310;SDS011;45001;52.218;5.154;2022-09-20T08:08:39;2.05;;;0.60;;
58310;SDS011;45001;52.218;5.154;2022-09-20T08:13:41;2.60;;;0.80;;
58310;SDS011;45001;52.218;5.154;2022-09-20T08:16:10;3.50;;;0.90;;
58310;SDS011;45001;52.218;5.154;2022-09-20T08:18:37;2.70;;;0.60;;
58310;SDS011;45001;52.218;5.154;2022-09-20T08:21:08;2.35;;;0.55;;
58310;SDS011;45001;52.218;5.154;2022-09-20T08:23:35;1.20;;;0.60;;
58310;SDS011;45001;52.218;5.154;2022-09-20T08:26:02;1.75;;;0.57;;
58310;SDS011;45001;52.218;5.154;2022-09-20T08:28:28;2.35;;;0.73;;
58310;SDS011;45001;52.218;5.154;2022-09-20T08:31:05;3.28;;;0.70;;
58310;SDS011;45001;52.218;5.154;2022-09-20T08:33:32;3.05;;;0.75;;
58310;SDS011;45001;52.218;5.154;2022-09-20T08:35:57;3.15;;;0.70;;
58310;SDS011;45001;52.218;5.154;2022-09-20T08:38:25;4.05;;;0.88;;
58310;SDS011;45001;52.218;5.154;2022-09-20T08:41:02;3.28;;;0.80;;
58310;SDS011;45001;52.218;5.154;2022-09-20T08:43:33;1.65;;;0.80;;
58310;SDS011;45001;52.218;5.154;2022-09-20T08:46:02;4.32;;;0.60;;
58310;SDS011;45001;52.218;5.154;2022-09-20T08:48:31;2.22;;;0.70;;
58310;SDS011;45001;52.218;5.154;2022-09-20T08:50:57;2.50;;;0.68;;
58310;SDS011;45001;52.218;5.154;2022-09-20T08:53:25;3.00;;;0.60;;
58310;SDS011;45001;52.218;5.154;2022-09-20T08:55:53;1.95;;;0.60;;
58310;SDS011;45001;52.218;5.154;2022-09-20T08:58:21;1.73;;;0.60;;
58310;SDS011;45001;52.218;5.154;2022-09-20T09:00:47;2.15;;;0.88;;
58310;SDS011;45001;52.218;5.154;2022-09-20T09:03:15;1.38;;;0.50;;
58310;SDS011;45001;52.218;5.154;2022-09-20T09:05:46;1.85;;;0.68;;
58310;SDS011;45001;52.218;5.154;2022-09-20T09:08:21;1.25;;;0.52;;
58310;SDS011;45001;52.218;5.154;2022-09-20T09:10:51;1.63;;;0.73;;
58310;SDS011;45001;52.218;5.154;2022-09-20T09:16:13;2.35;;;0.70;;
58310;SDS011;45001;52.218;5.154;2022-09-20T09:18:43;3.03;;;0.80;;
58310;SDS011;45001;52.218;5.154;2022-09-20T09:21:20;1.10;;;0.45;;
58310;SDS011;45001;52.218;5.154;2022-09-20T09:24:19;2.40;;;0.52;;
58310;SDS011;45001;52.218;5.154;2022-09-20T09:26:44;2.05;;;0.60;;
58310;SDS011;45001;52.218;5.154;2022-09-20T09:29:16;1.50;;;0.60;;
58310;SDS011;45001;52.218;5.154;2022-09-20T09:31:47;2.53;;;0.70;;
58310;SDS011;45001;52.218;5.154;2022-09-20T09:34:25;2.15;;;0.52;;
58310;SDS011;45001;52.218;5.154;2022-09-20T09:36:54;2.60;;;0.80;;
58310;SDS011;45001;52.218;5.154;2022-09-20T09:41:50;3.45;;;0.60;;
58310;SDS011;45001;52.218;5.154;2022-09-20T09:46:46;3.03;;;0.60;;
58310;SDS011;45001;52.218;5.154;2022-09-20T09:49:15;2.28;;;0.50;;
58310;SDS011;45001;52.218;5.154;2022-09-20T09:54:19;2.80;;;0.82;;
58310;SDS011;45001;52.218;5.154;2022-09-20T10:05:18;2.35;;;0.60;;
58310;SDS011;45001;52.218;5.154;2022-09-20T10:07:53;1.02;;;0.40;;
58310;SDS011;45001;52.218;5.154;2022-09-20T10:13:43;1.98;;;0.60;;
58310;SDS011;45001;52.218;5.154;2022-09-20T10:16:43;2.15;;;0.50;;
58310;SDS011;45001;52.218;5.154;2022-09-20T10:23:06;1.00;;;0.50;;
58310;SDS011;45001;52.218;5.154;2022-09-20T10:30:09;2.37;;;0.50;;
58310;SDS011;45001;52.218;5.154;2022-09-20T10:32:57;1.75;;;0.43;;
58310;SDS011;45001;52.218;5.154;2022-09-20T10:47:15;2.65;;;0.50;;
58310;SDS011;45001;52.218;5.154;2022-09-20T10:53:00;1.30;;;0.40;;
58310;SDS011;45001;52.218;5.154;2022-09-20T10:55:50;1.95;;;0.65;;
58310;SDS011;45001;52.218;5.154;2022-09-20T10:58:31;1.88;;;0.50;;
58310;SDS011;45001;52.218;5.154;2022-09-20T11:01:22;3.40;;;0.70;;
58310;SDS011;45001;52.218;5.154;2022-09-20T11:09:32;2.58;;;0.60;;
58310;SDS011;45001;52.218;5.154;2022-09-20T11:12:12;1.98;;;0.40;;
58310;SDS011;45001;52.218;5.154;2022-09-20T11:15:18;0.60;;;0.30;;
58310;SDS011;45001;52.218;5.154;2022-09-20T11:20:32;2.20;;;0.43;;
58310;SDS011;45001;52.218;5.154;2022-09-20T11:26:12;3.25;;;0.88;;
58310;SDS011;45001;52.218;5.154;2022-09-20T11:28:47;3.22;;;0.70;;
58310;SDS011;45001;52.218;5.154;2022-09-20T11:31:32;1.02;;;0.65;;
58310;SDS011;45001;52.218;5.154;2022-09-20T11:36:57;2.50;;;0.60;;
58310;SDS011;45001;52.218;5.154;2022-09-20T11:42:18;2.13;;;0.80;;
58310;SDS011;45001;52.218;5.154;2022-09-20T11:44:47;1.60;;;0.50;;
58310;SDS011;45001;52.218;5.154;2022-09-20T11:47:21;1.63;;;0.47;;
58310;SDS011;45001;52.218;5.154;2022-09-20T11:49:57;1.35;;;0.50;;
58310;SDS011;45001;52.218;5.154;2022-09-20T11:52:57;2.58;;;0.60;;
58310;SDS011;45001;52.218;5.154;2022-09-20T11:58:29;2.42;;;0.82;;
58310;SDS011;45001;52.218;5.154;2022-09-20T12:00:55;1.23;;;0.50;;
58310;SDS011;45001;52.218;5.154;2022-09-20T12:03:24;3.00;;;0.70;;
58310;SDS011;45001;52.218;5.154;2022-09-20T12:06:00;1.25;;;0.40;;
58310;SDS011;45001;52.218;5.154;2022-09-20T12:08:34;2.35;;;1.05;;
58310;SDS011;45001;52.218;5.154;2022-09-20T12:11:08;1.63;;;0.50;;
58310;SDS011;45001;52.218;5.154;2022-09-20T12:13:40;1.95;;;0.60;;
58310;SDS011;45001;52.218;5.154;2022-09-20T12:16:16;1.98;;;0.50;;
58310;SDS011;45001;52.218;5.154;2022-09-20T12:19:05;5.03;;;0.73;;
58310;SDS011;45001;52.218;5.154;2022-09-20T12:26:53;1.20;;;0.40;;
58310;SDS011;45001;52.218;5.154;2022-09-20T12:31:53;1.95;;;0.43;;
58310;SDS011;45001;52.218;5.154;2022-09-20T12:39:22;1.75;;;0.63;;
58310;SDS011;45001;52.218;5.154;2022-09-20T12:44:33;1.63;;;0.60;;
58310;SDS011;45001;52.218;5.154;2022-09-20T12:57:55;1.92;;;0.60;;
58310;SDS011;45001;52.218;5.154;2022-09-20T13:00:43;4.57;;;1.10;;
58310;SDS011;45001;52.218;5.154;2022-09-20T13:11:22;4.05;;;0.93;;
58310;SDS011;45001;52.218;5.154;2022-09-20T13:16:27;3.28;;;0.80;;
58310;SDS011;45001;52.218;5.154;2022-09-20T13:19:05;2.15;;;0.80;;
58310;SDS011;45001;52.218;5.154;2022-09-20T13:21:39;2.30;;;0.63;;
58310;SDS011;45001;52.218;5.154;2022-09-20T13:24:09;3.05;;;0.60;;
58310;SDS011;45001;52.218;5.154;2022-09-20T13:26:43;4.82;;;1.08;;
58310;SDS011;45001;52.218;5.154;2022-09-20T13:37:37;2.92;;;0.80;;
58310;SDS011;45001;52.218;5.154;2022-09-20T13:43:06;3.05;;;0.70;;
58310;SDS011;45001;52.218;5.154;2022-09-20T13:45:45;2.08;;;0.60;;
58310;SDS011;45001;52.218;5.154;2022-09-20T13:48:14;1.60;;;0.40;;
58310;SDS011;45001;52.218;5.154;2022-09-20T13:50:40;1.52;;;0.30;;
58310;SDS011;45001;52.218;5.154;2022-09-20T13:53:15;1.10;;;0.47;;
58310;SDS011;45001;52.218;5.154;2022-09-20T13:55:42;1.95;;;0.60;;
58310;SDS011;45001;52.218;5.154;2022-09-20T13:58:25;1.92;;;0.50;;
58310;SDS011;45001;52.218;5.154;2022-09-20T14:00:59;4.35;;;0.60;;
58310;SDS011;45001;52.218;5.154;2022-09-20T14:03:27;3.03;;;0.63;;
58310;SDS011;45001;52.218;5.154;2022-09-20T14:05:58;3.20;;;0.60;;
58310;SDS011;45001;52.218;5.154;2022-09-20T14:11:04;1.83;;;0.70;;
58310;SDS011;45001;52.218;5.154;2022-09-20T14:13:34;2.60;;;0.40;;
58310;SDS011;45001;52.218;5.154;2022-09-20T14:16:03;1.63;;;0.45;;
58310;SDS011;45001;52.218;5.154;2022-09-20T14:18:30;2.08;;;0.60;;
58310;SDS011;45001;52.218;5.154;2022-09-20T14:20:57;1.92;;;0.50;;
58310;SDS011;45001;52.218;5.154;2022-09-20T14:23:25;3.55;;;0.75;;
58310;SDS011;45001;52.218;5.154;2022-09-20T14:28:46;2.55;;;0.70;;
58310;SDS011;45001;52.218;5.154;2022-09-20T14:31:30;1.25;;;0.40;;
58310;SDS011;45001;52.218;5.154;2022-09-20T14:33:59;1.40;;;0.40;;
58310;SDS011;45001;52.218;5.154;2022-09-20T14:36:27;1.73;;;0.67;;
58310;SDS011;45001;52.218;5.154;2022-09-20T14:38:55;3.00;;;0.68;;
58310;SDS011;45001;52.218;5.154;2022-09-20T14:41:44;5.10;;;0.98;;
58310;SDS011;45001;52.218;5.154;2022-09-20T14:46:55;2.47;;;0.60;;
58310;SDS011;45001;52.218;5.154;2022-09-20T14:51:52;1.08;;;0.40;;
58310;SDS011;45001;52.218;5.154;2022-09-20T14:54:41;2.45;;;0.80;;
58310;SDS011;45001;52.218;5.154;2022-09-20T14:57:21;1.20;;;0.45;;
58310;SDS011;45001;52.218;5.154;2022-09-20T14:59:52;1.63;;;0.52;;
58310;SDS011;45001;52.218;5.154;2022-09-20T15:02:19;2.70;;;0.60;;
58310;SDS011;45001;52.218;5.154;2022-09-20T15:04:54;1.23;;;0.40;;
58310;SDS011;45001;52.218;5.154;2022-09-20T15:07:24;2.70;;;0.60;;
58310;SDS011;45001;52.218;5.154;2022-09-20T15:09:49;2.97;;;0.60;;
58310;SDS011;45001;52.218;5.154;2022-09-20T15:12:15;1.10;;;0.40;;
58310;SDS011;45001;52.218;5.154;2022-09-20T15:14:43;1.00;;;0.50;;
58310;SDS011;45001;52.218;5.154;2022-09-20T15:17:18;4.35;;;0.60;;
58310;SDS011;45001;52.218;5.154;2022-09-20T15:19:45;3.20;;;0.70;;
58310;SDS011;45001;52.218;5.154;2022-09-20T15:22:11;2.35;;;0.55;;
58310;SDS011;45001;52.218;5.154;2022-09-20T15:24:37;2.00;;;0.50;;
58310;SDS011;45001;52.218;5.154;2022-09-20T15:27:03;2.85;;;0.50;;
58310;SDS011;45001;52.218;5.154;2022-09-20T15:29:28;2.92;;;0.50;;
58310;SDS011;45001;52.218;5.154;2022-09-20T15:31:54;1.20;;;0.40;;
58310;SDS011;45001;52.218;5.154;2022-09-20T15:34:19;2.13;;;0.50;;
58310;SDS011;45001;52.218;5.154;2022-09-20T15:36:44;1.33;;;0.60;;
58310;SDS011;45001;52.218;5.154;2022-09-20T15:39:12;2.28;;;0.50;;
58310;SDS011;45001;52.218;5.154;2022-09-20T15:41:38;2.42;;;0.60;;
58310;SDS011;45001;52.218;5.154;2022-09-20T15:44:04;1.98;;;0.50;;
58310;SDS011;45001;52.218;5.154;2022-09-20T15:46:31;2.15;;;0.60;;
58310;SDS011;45001;52.218;5.154;2022-09-20T15:48:58;3.15;;;0.73;;
58310;SDS011;45001;52.218;5.154;2022-09-20T15:51:27;2.33;;;0.57;;
58310;SDS011;45001;52.218;5.154;2022-09-20T15:53:58;1.83;;;0.43;;
58310;SDS011;45001;52.218;5.154;2022-09-20T15:56:26;1.33;;;0.55;;
58310;SDS011;45001;52.218;5.154;2022-09-20T15:58:54;2.30;;;1.35;;
58310;SDS011;45001;52.218;5.154;2022-09-20T16:01:28;1.58;;;0.88;;
58310;SDS011;45001;52.218;5.154;2022-09-20T16:03:56;1.05;;;0.30;;
58310;SDS011;45001;52.218;5.154;2022-09-20T16:06:22;1.02;;;0.70;;
58310;SDS011;45001;52.218;5.154;2022-09-20T16:08:48;2.20;;;0.70;;
58310;SDS011;45001;52.218;5.154;2022-09-20T16:11:15;2.65;;;0.88;;
58310;SDS011;45001;52.218;5.154;2022-09-20T16:13:44;1.35;;;0.43;;
58310;SDS011;45001;52.218;5.154;2022-09-20T16:16:09;0.65;;;0.30;;
58310;SDS011;45001;52.218;5.154;2022-09-20T16:18:39;2.28;;;0.60;;
58310;SDS011;45001;52.218;5.154;2022-09-20T16:21:23;1.73;;;0.57;;
58310;SDS011;45001;52.218;5.154;2022-09-20T16:23:53;4.07;;;0.70;;
58310;SDS011;45001;52.218;5.154;2022-09-20T16:26:20;1.67;;;0.55;;
58310;SDS011;45001;52.218;5.154;2022-09-20T16:28:47;2.22;;;0.60;;
58310;SDS011;45001;52.218;5.154;2022-09-20T16:36:37;1.23;;;0.45;;
58310;SDS011;45001;52.218;5.154;2022-09-20T16:39:05;0.90;;;0.40;;
58310;SDS011;45001;52.218;5.154;2022-09-20T16:41:31;1.20;;;0.40;;
58310;SDS011;45001;52.218;5.154;2022-09-20T16:43:57;2.30;;;1.05;;
58310;SDS011;45001;52.218;5.154;2022-09-20T16:46:23;1.40;;;0.55;;
58310;SDS011;45001;52.218;5.154;2022-09-20T16:48:51;2.45;;;0.47;;
58310;SDS011;45001;52.218;5.154;2022-09-20T16:51:21;2.58;;;0.70;;
58310;SDS011;45001;52.218;5.154;2022-09-20T16:53:48;2.60;;;0.70;;
58310;SDS011;45001;52.218;5.154;2022-09-20T16:56:25;7.13;;;0.70;;
58310;SDS011;45001;52.218;5.154;2022-09-20T16:58:53;2.50;;;0.70;;
58310;SDS011;45001;52.218;5.154;2022-09-20T17:01:19;1.65;;;0.52;;
58310;SDS011;45001;52.218;5.154;2022-09-20T17:03:45;2.70;;;0.55;;
58310;SDS011;45001;52.218;5.154;2022-09-20T17:06:11;1.92;;;0.63;;
58310;SDS011;45001;52.218;5.154;2022-09-20T17:08:38;2.03;;;0.60;;
58310;SDS011;45001;52.218;5.154;2022-09-20T17:11:05;2.25;;;0.60;;
58310;SDS011;45001;52.218;5.154;2022-09-20T17:13:32;2.03;;;0.73;;
58310;SDS011;45001;52.218;5.154;2022-09-20T17:15:59;2.90;;;0.90;;
58310;SDS011;45001;52.218;5.154;2022-09-20T17:18:25;5.45;;;0.60;;
58310;SDS011;45001;52.218;5.154;2022-09-20T17:20:50;2.65;;;0.60;;
58310;SDS011;45001;52.218;5.154;2022-09-20T17:23:16;1.10;;;0.60;;
58310;SDS011;45001;52.218;5.154;2022-09-20T17:25:41;2.13;;;0.70;;
58310;SDS011;45001;52.218;5.154;2022-09-20T17:28:10;2.88;;;0.77;;
58310;SDS011;45001;52.218;5.154;2022-09-20T17:30:35;1.60;;;0.50;;
58310;SDS011;45001;52.218;5.154;2022-09-20T17:33:00;2.50;;;0.47;;
58310;SDS011;45001;52.218;5.154;2022-09-20T17:35:26;4.22;;;0.60;;
58310;SDS011;45001;52.218;5.154;2022-09-20T17:37:53;2.67;;;0.90;;
58310;SDS011;45001;52.218;5.154;2022-09-20T17:40:18;1.00;;;0.50;;
58310;SDS011;45001;52.218;5.154;2022-09-20T17:42:43;1.80;;;0.80;;
58310;SDS011;45001;52.218;5.154;2022-09-20T17:45:09;1.50;;;0.60;;
58310;SDS011;45001;52.218;5.154;2022-09-20T17:47:35;2.30;;;0.80;;
58310;SDS011;45001;52.218;5.154;2022-09-20T17:50:00;3.08;;;0.70;;
58310;SDS011;45001;52.218;5.154;2022-09-20T17:52:25;2.30;;;0.63;;
58310;SDS011;45001;52.218;5.154;2022-09-20T17:54:51;1.92;;;0.70;;
58310;SDS011;45001;52.218;5.154;2022-09-20T17:57:16;1.50;;;0.68;;
58310;SDS011;45001;52.218;5.154;2022-09-20T17:59:41;1.67;;;0.80;;
58310;SDS011;45001;52.218;5.154;2022-09-20T18:02:07;3.03;;;1.13;;
58310;SDS011;45001;52.218;5.154;2022-09-20T18:04:32;2.20;;;0.82;;
58310;SDS011;45001;52.218;5.154;2022-09-20T18:06:58;3.45;;;1.25;;
58310;SDS011;45001;52.218;5.154;2022-09-20T18:09:25;3.55;;;1.73;;
58310;SDS011;45001;52.218;5.154;2022-09-20T18:11:52;3.92;;;1.92;;
58310;SDS011;45001;52.218;5.154;2022-09-20T18:14:19;3.83;;;1.90;;
58310;SDS011;45001;52.218;5.154;2022-09-20T18:16:49;4.32;;;1.48;;
58310;SDS011;45001;52.218;5.154;2022-09-20T18:19:16;4.67;;;1.60;;
58310;SDS011;45001;52.218;5.154;2022-09-20T18:21:41;3.60;;;1.65;;
58310;SDS011;45001;52.218;5.154;2022-09-20T18:24:08;3.97;;;1.70;;
58310;SDS011;45001;52.218;5.154;2022-09-20T18:26:34;4.20;;;1.83;;
58310;SDS011;45001;52.218;5.154;2022-09-20T18:29:02;4.03;;;1.48;;
58310;SDS011;45001;52.218;5.154;2022-09-20T18:31:44;3.05;;;1.63;;
58310;SDS011;45001;52.218;5.154;2022-09-20T18:36:49;6.45;;;2.75;;
58310;SDS011;45001;52.218;5.154;2022-09-20T18:39:21;3.20;;;2.17;;
58310;SDS011;45001;52.218;5.154;2022-09-20T18:41:49;4.38;;;2.65;;
58310;SDS011;45001;52.218;5.154;2022-09-20T18:44:15;4.25;;;2.70;;
58310;SDS011;45001;52.218;5.154;2022-09-20T18:46:42;4.53;;;2.63;;
58310;SDS011;45001;52.218;5.154;2022-09-20T18:49:08;5.35;;;2.72;;
58310;SDS011;45001;52.218;5.154;2022-09-20T18:51:39;5.05;;;2.70;;
58310;SDS011;45001;52.218;5.154;2022-09-20T18:54:05;4.47;;;3.05;;
58310;SDS011;45001;52.218;5.154;2022-09-20T18:56:33;5.30;;;2.83;;
58310;SDS011;45001;52.218;5.154;2022-09-20T18:59:02;4.20;;;2.75;;
58310;SDS011;45001;52.218;5.154;2022-09-20T19:01:33;3.97;;;2.72;;
58310;SDS011;45001;52.218;5.154;2022-09-20T19:12:31;5.05;;;2.83;;
58310;SDS011;45001;52.218;5.154;2022-09-20T19:15:16;4.55;;;3.05;;
58310;SDS011;45001;52.218;5.154;2022-09-20T19:18:13;4.00;;;3.33;;
58310;SDS011;45001;52.218;5.154;2022-09-20T19:24:23;4.53;;;3.00;;
58310;SDS011;45001;52.218;5.154;2022-09-20T19:26:58;6.07;;;3.40;;
58310;SDS011;45001;52.218;5.154;2022-09-20T19:29:24;5.05;;;3.35;;
58310;SDS011;45001;52.218;5.154;2022-09-20T19:31:52;4.95;;;3.38;;
58310;SDS011;45001;52.218;5.154;2022-09-20T19:34:21;5.40;;;3.63;;
58310;SDS011;45001;52.218;5.154;2022-09-20T19:39:28;5.65;;;3.90;;
58310;SDS011;45001;52.218;5.154;2022-09-20T19:42:12;6.18;;;3.92;;
58310;SDS011;45001;52.218;5.154;2022-09-20T19:47:48;6.13;;;4.05;;
58310;SDS011;45001;52.218;5.154;2022-09-20T19:50:40;5.78;;;3.97;;
58310;SDS011;45001;52.218;5.154;2022-09-20T19:53:12;6.88;;;4.55;;
58310;SDS011;45001;52.218;5.154;2022-09-20T19:55:39;8.88;;;4.40;;
58310;SDS011;45001;52.218;5.154;2022-09-20T19:58:13;6.20;;;4.03;;
58310;SDS011;45001;52.218;5.154;2022-09-20T20:00:41;6.13;;;4.20;;
58310;SDS011;45001;52.218;5.154;2022-09-20T20:03:08;6.95;;;4.07;;
58310;SDS011;45001;52.218;5.154;2022-09-20T20:05:36;7.63;;;4.28;;
58310;SDS011;45001;52.218;5.154;2022-09-20T20:16:32;6.40;;;4.40;;
58310;SDS011;45001;52.218;5.154;2022-09-20T20:19:34;5.70;;;4.38;;
58310;SDS011;45001;52.218;5.154;2022-09-20T20:24:49;5.22;;;4.03;;
58310;SDS011;45001;52.218;5.154;2022-09-20T20:27:16;5.80;;;3.97;;
58310;SDS011;45001;52.218;5.154;2022-09-20T20:29:42;5.75;;;4.30;;
58310;SDS011;45001;52.218;5.154;2022-09-20T20:32:08;5.60;;;3.97;;
58310;SDS011;45001;52.218;5.154;2022-09-20T20:34:33;5.40;;;3.85;;
58310;SDS011;45001;52.218;5.154;2022-09-20T20:37:00;5.28;;;3.78;;
58310;SDS011;45001;52.218;5.154;2022-09-20T20:39:28;5.10;;;4.00;;
58310;SDS011;45001;52.218;5.154;2022-09-20T20:41:56;6.43;;;3.65;;
58310;SDS011;45001;52.218;5.154;2022-09-20T20:44:31;5.90;;;4.25;;
58310;SDS011;45001;52.218;5.154;2022-09-20T20:46:59;6.97;;;3.97;;
58310;SDS011;45001;52.218;5.154;2022-09-20T20:49:28;5.85;;;3.58;;
58310;SDS011;45001;52.218;5.154;2022-09-20T20:51:53;5.68;;;3.78;;